sensor_id;sensor_type;location;lat;lon;timestamp;pressure;altitude;pressure_sealevel;temperature;humidity
31285;BME280;56605;51.516;6.742;2023-06-14T00:01:32;101170.59;;;18.16;71.59
31285;BME280;56605;51.516;6.742;2023-06-14T00:03:59;101170.78;;;18.28;71.08
31285;BME280;56605;51.516;6.742;2023-06-14T00:06:25;101182.84;;;18.32;70.95
31285;BME280;56605;51.516;6.742;2023-06-14T00:08:51;101176.59;;;18.24;71.13
31285;BME280;56605;51.516;6.742;2023-06-14T00:11:16;101184.53;;;18.33;70.17
31285;BME280;56605;51.516;6.742;2023-06-14T00:13:41;101175.78;;;18.24;71.24
31285;BME280;56605;51.516;6.742;2023-06-14T00:16:08;101177.81;;;18.08;72.26
31285;BME280;56605;51.516;6.742;2023-06-14T00:18:33;101180.56;;;18.15;71.81
31285;BME280;56605;51.516;6.742;2023-06-14T00:20:59;101182.22;;;18.16;71.82
31285;BME280;56605;51.516;6.742;2023-06-14T00:23:25;101188.47;;;18.10;72.33
31285;BME280;56605;51.516;6.742;2023-06-14T00:25:50;101187.38;;;18.04;72.00
31285;BME280;56605;51.516;6.742;2023-06-14T00:28:16;101198.19;;;18.04;72.13
31285;BME280;56605;51.516;6.742;2023-06-14T00:30:41;101198.19;;;18.04;72.08
31285;BME280;56605;51.516;6.742;2023-06-14T00:33:06;101202.56;;;18.05;72.05
31285;BME280;56605;51.516;6.742;2023-06-14T00:35:32;101203.00;;;18.16;71.54
31285;BME280;56605;51.516;6.742;2023-06-14T00:37:57;101212.91;;;17.95;72.78
31285;BME280;56605;51.516;6.742;2023-06-14T00:40:23;101212.09;;;17.81;74.14
31285;BME280;56605;51.516;6.742;2023-06-14T00:42:48;101209.41;;;17.94;72.76
31285;BME280;56605;51.516;6.742;2023-06-14T00:45:13;101212.50;;;17.84;73.19
31285;BME280;56605;51.516;6.742;2023-06-14T00:47:40;101213.75;;;17.95;72.40
31285;BME280;56605;51.516;6.742;2023-06-14T00:50:07;101214.59;;;17.89;72.65
31285;BME280;56605;51.516;6.742;2023-06-14T00:52:33;101211.84;;;17.69;73.87
31285;BME280;56605;51.516;6.742;2023-06-14T00:54:58;101219.75;;;17.77;72.34
31285;BME280;56605;51.516;6.742;2023-06-14T00:57:23;101216.03;;;17.92;71.42
31285;BME280;56605;51.516;6.742;2023-06-14T00:59:49;101215.59;;;17.81;71.93
31285;BME280;56605;51.516;6.742;2023-06-14T01:02:15;101219.94;;;17.75;71.66
31285;BME280;56605;51.516;6.742;2023-06-14T01:04:43;101219.09;;;17.68;72.48
31285;BME280;56605;51.516;6.742;2023-06-14T01:13:18;101226.59;;;17.73;70.93
31285;BME280;56605;51.516;6.742;2023-06-14T01:15:47;101222.44;;;17.70;70.57
31285;BME280;56605;51.516;6.742;2023-06-14T01:18:12;101219.75;;;17.70;70.94
31285;BME280;56605;51.516;6.742;2023-06-14T01:20:45;101217.44;;;17.67;70.31
31285;BME280;56605;51.516;6.742;2023-06-14T01:23:14;101219.31;;;17.67;70.12
31285;BME280;56605;51.516;6.742;2023-06-14T01:25:40;101214.50;;;17.62;70.18
31285;BME280;56605;51.516;6.742;2023-06-14T01:28:10;101223.59;;;17.47;70.68
31285;BME280;56605;51.516;6.742;2023-06-14T01:30:38;101218.25;;;17.61;69.85
31285;BME280;56605;51.516;6.742;2023-06-14T01:33:04;101216.81;;;17.65;68.52
31285;BME280;56605;51.516;6.742;2023-06-14T01:35:31;101214.19;;;17.30;71.28
31285;BME280;56605;51.516;6.742;2023-06-14T01:37:56;101222.56;;;17.42;69.52
31285;BME280;56605;51.516;6.742;2023-06-14T01:40:22;101213.66;;;17.55;69.33
31285;BME280;56605;51.516;6.742;2023-06-14T01:42:49;101211.19;;;17.60;68.04
31285;BME280;56605;51.516;6.742;2023-06-14T01:45:16;101214.31;;;17.64;67.39
31285;BME280;56605;51.516;6.742;2023-06-14T01:47:43;101216.16;;;17.49;67.64
31285;BME280;56605;51.516;6.742;2023-06-14T01:50:09;101224.31;;;17.70;66.47
31285;BME280;56605;51.516;6.742;2023-06-14T01:52:36;101217.00;;;17.57;67.44
31285;BME280;56605;51.516;6.742;2023-06-14T01:55:01;101215.34;;;17.62;66.33
31285;BME280;56605;51.516;6.742;2023-06-14T01:57:27;101220.94;;;17.54;66.64
31285;BME280;56605;51.516;6.742;2023-06-14T01:59:52;101221.97;;;17.53;66.48
31285;BME280;56605;51.516;6.742;2023-06-14T02:02:17;101218.66;;;17.58;66.03
31285;BME280;56605;51.516;6.742;2023-06-14T02:04:43;101210.69;;;17.36;67.43
31285;BME280;56605;51.516;6.742;2023-06-14T02:07:08;101223.34;;;17.35;67.24
31285;BME280;56605;51.516;6.742;2023-06-14T02:09:34;101222.16;;;17.52;65.23
31285;BME280;56605;51.516;6.742;2023-06-14T02:12:00;101215.16;;;17.57;65.82
31285;BME280;56605;51.516;6.742;2023-06-14T02:14:25;101218.66;;;17.51;65.79
31285;BME280;56605;51.516;6.742;2023-06-14T02:16:51;101222.34;;;17.43;65.90
31285;BME280;56605;51.516;6.742;2023-06-14T02:19:18;101218.81;;;17.43;65.48
31285;BME280;56605;51.516;6.742;2023-06-14T02:21:44;101223.81;;;17.46;65.19
31285;BME280;56605;51.516;6.742;2023-06-14T02:24:10;101220.63;;;17.29;66.67
31285;BME280;56605;51.516;6.742;2023-06-14T02:26:36;101225.06;;;17.43;65.82
31285;BME280;56605;51.516;6.742;2023-06-14T02:29:06;101225.44;;;17.40;66.13
31285;BME280;56605;51.516;6.742;2023-06-14T02:31:35;101227.50;;;17.31;66.76
31285;BME280;56605;51.516;6.742;2023-06-14T02:34:00;101230.56;;;17.21;66.96
31285;BME280;56605;51.516;6.742;2023-06-14T02:36:25;101229.78;;;17.28;66.28
31285;BME280;56605;51.516;6.742;2023-06-14T02:38:51;101235.28;;;17.13;67.52
31285;BME280;56605;51.516;6.742;2023-06-14T02:41:18;101234.22;;;17.07;67.68
31285;BME280;56605;51.516;6.742;2023-06-14T02:43:43;101233.75;;;17.03;68.07
31285;BME280;56605;51.516;6.742;2023-06-14T02:46:09;101238.00;;;16.84;69.04
31285;BME280;56605;51.516;6.742;2023-06-14T02:48:34;101239.94;;;16.97;68.44
31285;BME280;56605;51.516;6.742;2023-06-14T02:50:59;101239.13;;;16.96;68.13
31285;BME280;56605;51.516;6.742;2023-06-14T02:53:25;101238.34;;;17.03;68.12
31285;BME280;56605;51.516;6.742;2023-06-14T02:55:50;101237.50;;;17.02;67.84
31285;BME280;56605;51.516;6.742;2023-06-14T02:58:15;101243.59;;;17.11;67.56
31285;BME280;56605;51.516;6.742;2023-06-14T03:00:42;101244.53;;;17.03;67.75
31285;BME280;56605;51.516;6.742;2023-06-14T03:03:07;101250.59;;;17.05;67.56
31285;BME280;56605;51.516;6.742;2023-06-14T03:05:43;101251.03;;;17.09;67.80
31285;BME280;56605;51.516;6.742;2023-06-14T03:08:11;101252.00;;;17.01;68.15
31285;BME280;56605;51.516;6.742;2023-06-14T03:10:42;101254.47;;;16.96;67.88
31285;BME280;56605;51.516;6.742;2023-06-14T03:13:08;101256.22;;;17.10;68.01
31285;BME280;56605;51.516;6.742;2023-06-14T03:15:33;101256.56;;;16.72;69.66
31285;BME280;56605;51.516;6.742;2023-06-14T03:17:59;101262.44;;;16.82;69.42
31285;BME280;56605;51.516;6.742;2023-06-14T03:20:24;101259.56;;;16.84;69.31
31285;BME280;56605;51.516;6.742;2023-06-14T03:22:55;101269.53;;;16.83;69.89
31285;BME280;56605;51.516;6.742;2023-06-14T03:25:20;101262.34;;;16.69;70.68
31285;BME280;56605;51.516;6.742;2023-06-14T03:27:47;101266.84;;;16.83;69.82
31285;BME280;56605;51.516;6.742;2023-06-14T03:30:12;101264.75;;;16.57;71.39
31285;BME280;56605;51.516;6.742;2023-06-14T03:32:38;101270.06;;;16.72;71.81
31285;BME280;56605;51.516;6.742;2023-06-14T03:35:03;101273.94;;;16.63;71.63
31285;BME280;56605;51.516;6.742;2023-06-14T03:37:29;101276.25;;;16.44;73.36
31285;BME280;56605;51.516;6.742;2023-06-14T03:39:54;101273.09;;;16.62;71.94
31285;BME280;56605;51.516;6.742;2023-06-14T03:42:19;101273.94;;;16.41;73.83
31285;BME280;56605;51.516;6.742;2023-06-14T03:44:45;101277.97;;;16.52;72.63
31285;BME280;56605;51.516;6.742;2023-06-14T03:47:10;101277.03;;;16.59;73.06
31285;BME280;56605;51.516;6.742;2023-06-14T03:49:35;101282.16;;;16.54;73.06
31285;BME280;56605;51.516;6.742;2023-06-14T03:52:02;101284.06;;;16.60;72.91
31285;BME280;56605;51.516;6.742;2023-06-14T03:54:27;101291.69;;;16.57;72.99
31285;BME280;56605;51.516;6.742;2023-06-14T03:56:53;101288.88;;;16.65;72.35
31285;BME280;56605;51.516;6.742;2023-06-14T03:59:19;101293.06;;;16.46;73.78
31285;BME280;56605;51.516;6.742;2023-06-14T04:01:45;101294.13;;;16.73;72.37
31285;BME280;56605;51.516;6.742;2023-06-14T04:04:11;101293.81;;;16.61;73.83
31285;BME280;56605;51.516;6.742;2023-06-14T04:06:37;101298.31;;;16.54;73.55
31285;BME280;56605;51.516;6.742;2023-06-14T04:09:02;101303.47;;;16.49;74.18
31285;BME280;56605;51.516;6.742;2023-06-14T04:11:30;101303.97;;;16.59;73.28
31285;BME280;56605;51.516;6.742;2023-06-14T04:13:56;101312.44;;;16.56;74.31
31285;BME280;56605;51.516;6.742;2023-06-14T04:16:22;101315.75;;;16.58;73.74
31285;BME280;56605;51.516;6.742;2023-06-14T04:18:47;101321.97;;;16.81;73.05
31285;BME280;56605;51.516;6.742;2023-06-14T04:21:16;101313.09;;;16.87;73.26
31285;BME280;56605;51.516;6.742;2023-06-14T04:23:41;101317.41;;;16.81;73.23
31285;BME280;56605;51.516;6.742;2023-06-14T04:26:09;101323.03;;;16.86;73.03
31285;BME280;56605;51.516;6.742;2023-06-14T04:28:35;101316.56;;;16.81;73.18
31285;BME280;56605;51.516;6.742;2023-06-14T04:31:06;101321.25;;;16.94;72.68
31285;BME280;56605;51.516;6.742;2023-06-14T04:33:34;101322.47;;;16.91;73.17
31285;BME280;56605;51.516;6.742;2023-06-14T04:36:08;101321.94;;;17.03;72.54
31285;BME280;56605;51.516;6.742;2023-06-14T04:38:33;101324.50;;;17.11;71.84
31285;BME280;56605;51.516;6.742;2023-06-14T04:40:59;101336.44;;;17.02;72.98
31285;BME280;56605;51.516;6.742;2023-06-14T04:43:26;101330.38;;;17.21;71.90
31285;BME280;56605;51.516;6.742;2023-06-14T04:45:52;101333.19;;;17.06;71.75
31285;BME280;56605;51.516;6.742;2023-06-14T04:48:20;101334.06;;;17.14;72.32
31285;BME280;56605;51.516;6.742;2023-06-14T04:50:46;101333.47;;;17.18;72.10
31285;BME280;56605;51.516;6.742;2023-06-14T04:53:11;101337.50;;;17.29;71.56
31285;BME280;56605;51.516;6.742;2023-06-14T04:55:37;101335.69;;;17.43;71.76
31285;BME280;56605;51.516;6.742;2023-06-14T04:58:02;101344.88;;;17.49;70.79
31285;BME280;56605;51.516;6.742;2023-06-14T05:00:28;101346.56;;;17.50;72.00
31285;BME280;56605;51.516;6.742;2023-06-14T05:02:53;101346.97;;;17.54;70.99
31285;BME280;56605;51.516;6.742;2023-06-14T05:05:18;101354.47;;;17.58;71.11
31285;BME280;56605;51.516;6.742;2023-06-14T05:07:45;101353.69;;;17.71;70.37
31285;BME280;56605;51.516;6.742;2023-06-14T05:10:10;101351.41;;;17.68;70.71
31285;BME280;56605;51.516;6.742;2023-06-14T05:12:36;101356.41;;;17.71;71.64
31285;BME280;56605;51.516;6.742;2023-06-14T05:15:02;101353.53;;;17.80;70.55
31285;BME280;56605;51.516;6.742;2023-06-14T05:17:28;101357.25;;;17.72;70.74
31285;BME280;56605;51.516;6.742;2023-06-14T05:19:54;101357.47;;;17.77;71.00
31285;BME280;56605;51.516;6.742;2023-06-14T05:22:20;101363.31;;;17.81;70.34
31285;BME280;56605;51.516;6.742;2023-06-14T05:24:46;101363.63;;;18.06;70.05
31285;BME280;56605;51.516;6.742;2023-06-14T05:27:13;101367.00;;;18.15;70.11
31285;BME280;56605;51.516;6.742;2023-06-14T05:29:39;101360.13;;;18.12;70.38
31285;BME280;56605;51.516;6.742;2023-06-14T05:32:05;101375.31;;;18.20;69.97
31285;BME280;56605;51.516;6.742;2023-06-14T05:34:31;101364.94;;;18.37;69.86
31285;BME280;56605;51.516;6.742;2023-06-14T05:36:56;101367.84;;;18.29;69.52
31285;BME280;56605;51.516;6.742;2023-06-14T05:39:22;101367.44;;;18.25;68.82
31285;BME280;56605;51.516;6.742;2023-06-14T05:41:47;101370.59;;;18.36;68.21
31285;BME280;56605;51.516;6.742;2023-06-14T05:44:12;101370.78;;;18.48;68.97
31285;BME280;56605;51.516;6.742;2023-06-14T05:46:38;101369.56;;;18.50;68.22
31285;BME280;56605;51.516;6.742;2023-06-14T05:49:05;101374.56;;;18.67;68.61
31285;BME280;56605;51.516;6.742;2023-06-14T05:51:30;101371.88;;;18.74;67.46
31285;BME280;56605;51.516;6.742;2023-06-14T05:53:55;101383.13;;;18.84;67.39
31285;BME280;56605;51.516;6.742;2023-06-14T05:56:21;101385.63;;;18.86;67.29
31285;BME280;56605;51.516;6.742;2023-06-14T05:58:46;101382.69;;;18.81;67.67
31285;BME280;56605;51.516;6.742;2023-06-14T06:01:12;101382.72;;;18.87;68.14
31285;BME280;56605;51.516;6.742;2023-06-14T06:03:38;101395.22;;;19.09;67.88
31285;BME280;56605;51.516;6.742;2023-06-14T06:06:03;101393.75;;;19.26;67.03
31285;BME280;56605;51.516;6.742;2023-06-14T06:08:29;101389.19;;;19.20;65.37
31285;BME280;56605;51.516;6.742;2023-06-14T06:10:55;101385.22;;;19.36;66.89
31285;BME280;56605;51.516;6.742;2023-06-14T06:13:20;101392.09;;;19.32;66.33
31285;BME280;56605;51.516;6.742;2023-06-14T06:15:46;101388.09;;;19.42;64.99
31285;BME280;56605;51.516;6.742;2023-06-14T06:18:11;101386.84;;;19.44;66.41
31285;BME280;56605;51.516;6.742;2023-06-14T06:20:37;101396.19;;;19.55;65.56
31285;BME280;56605;51.516;6.742;2023-06-14T06:23:02;101401.84;;;19.47;66.29
31285;BME280;56605;51.516;6.742;2023-06-14T06:25:27;101400.78;;;19.55;64.89
31285;BME280;56605;51.516;6.742;2023-06-14T06:27:54;101403.09;;;19.37;65.20
31285;BME280;56605;51.516;6.742;2023-06-14T06:30:20;101415.81;;;19.37;64.76
31285;BME280;56605;51.516;6.742;2023-06-14T06:32:46;101418.94;;;19.41;63.84
31285;BME280;56605;51.516;6.742;2023-06-14T06:35:12;101414.97;;;19.50;63.55
31285;BME280;56605;51.516;6.742;2023-06-14T06:37:38;101420.78;;;19.40;62.77
31285;BME280;56605;51.516;6.742;2023-06-14T06:40:04;101415.13;;;19.69;62.38
31285;BME280;56605;51.516;6.742;2023-06-14T06:42:31;101418.88;;;19.61;62.27
31285;BME280;56605;51.516;6.742;2023-06-14T06:44:56;101426.41;;;19.59;61.00
31285;BME280;56605;51.516;6.742;2023-06-14T06:47:21;101426.19;;;19.60;61.37
31285;BME280;56605;51.516;6.742;2023-06-14T06:49:47;101426.75;;;19.89;61.16
31285;BME280;56605;51.516;6.742;2023-06-14T06:52:13;101428.06;;;20.26;59.87
31285;BME280;56605;51.516;6.742;2023-06-14T06:54:39;101435.25;;;19.93;59.74
31285;BME280;56605;51.516;6.742;2023-06-14T06:57:04;101440.66;;;20.07;58.55
31285;BME280;56605;51.516;6.742;2023-06-14T06:59:31;101437.56;;;19.89;58.60
31285;BME280;56605;51.516;6.742;2023-06-14T07:01:56;101439.19;;;20.11;57.68
31285;BME280;56605;51.516;6.742;2023-06-14T07:04:22;101435.41;;;20.19;57.42
31285;BME280;56605;51.516;6.742;2023-06-14T07:06:47;101445.97;;;20.34;57.57
31285;BME280;56605;51.516;6.742;2023-06-14T07:09:13;101449.97;;;20.31;56.90
31285;BME280;56605;51.516;6.742;2023-06-14T07:11:40;101446.84;;;20.27;57.13
31285;BME280;56605;51.516;6.742;2023-06-14T07:14:05;101453.41;;;20.45;57.97
31285;BME280;56605;51.516;6.742;2023-06-14T07:16:31;101447.63;;;20.42;57.21
31285;BME280;56605;51.516;6.742;2023-06-14T07:18:56;101451.53;;;20.46;57.39
31285;BME280;56605;51.516;6.742;2023-06-14T07:21:22;101448.34;;;20.56;57.54
31285;BME280;56605;51.516;6.742;2023-06-14T07:23:47;101455.84;;;20.60;57.02
31285;BME280;56605;51.516;6.742;2023-06-14T07:26:12;101443.47;;;20.32;57.54
31285;BME280;56605;51.516;6.742;2023-06-14T07:28:38;101450.91;;;20.50;58.02
31285;BME280;56605;51.516;6.742;2023-06-14T07:31:03;101459.56;;;20.66;57.53
31285;BME280;56605;51.516;6.742;2023-06-14T07:33:28;101463.13;;;20.67;55.71
31285;BME280;56605;51.516;6.742;2023-06-14T07:35:54;101450.38;;;20.67;55.58
31285;BME280;56605;51.516;6.742;2023-06-14T07:38:19;101455.28;;;20.84;55.67
31285;BME280;56605;51.516;6.742;2023-06-14T07:40:44;101451.34;;;20.80;55.75
31285;BME280;56605;51.516;6.742;2023-06-14T07:43:10;101457.16;;;21.15;56.39
31285;BME280;56605;51.516;6.742;2023-06-14T07:45:36;101451.34;;;20.80;55.30
31285;BME280;56605;51.516;6.742;2023-06-14T07:48:02;101450.66;;;20.91;55.12
31285;BME280;56605;51.516;6.742;2023-06-14T07:50:28;101456.66;;;21.00;55.56
31285;BME280;56605;51.516;6.742;2023-06-14T07:52:53;101451.56;;;21.36;55.19
31285;BME280;56605;51.516;6.742;2023-06-14T07:55:19;101451.56;;;21.36;54.69
31285;BME280;56605;51.516;6.742;2023-06-14T07:57:44;101455.13;;;21.55;54.00
31285;BME280;56605;51.516;6.742;2023-06-14T08:00:10;101449.22;;;20.49;54.73
31285;BME280;56605;51.516;6.742;2023-06-14T08:02:43;101458.13;;;20.63;54.14
31285;BME280;56605;51.516;6.742;2023-06-14T08:05:10;101455.69;;;20.87;55.21
31285;BME280;56605;51.516;6.742;2023-06-14T08:07:36;101464.19;;;20.98;55.50
31285;BME280;56605;51.516;6.742;2023-06-14T08:10:02;101470.28;;;20.86;55.27
31285;BME280;56605;51.516;6.742;2023-06-14T08:12:27;101463.94;;;21.32;54.83
31285;BME280;56605;51.516;6.742;2023-06-14T08:14:52;101472.06;;;21.32;54.82
31285;BME280;56605;51.516;6.742;2023-06-14T08:17:17;101465.47;;;21.46;54.43
31285;BME280;56605;51.516;6.742;2023-06-14T08:19:43;101458.94;;;21.91;53.80
31285;BME280;56605;51.516;6.742;2023-06-14T08:22:08;101451.31;;;22.00;53.53
31285;BME280;56605;51.516;6.742;2023-06-14T08:24:36;101461.91;;;21.90;54.57
31285;BME280;56605;51.516;6.742;2023-06-14T08:27:02;101462.81;;;22.83;53.95
31285;BME280;56605;51.516;6.742;2023-06-14T08:29:27;101473.78;;;22.76;51.58
31285;BME280;56605;51.516;6.742;2023-06-14T08:31:54;101460.00;;;21.72;53.02
31285;BME280;56605;51.516;6.742;2023-06-14T08:34:20;101466.38;;;22.95;52.77
31285;BME280;56605;51.516;6.742;2023-06-14T08:36:45;101467.81;;;22.55;51.92
31285;BME280;56605;51.516;6.742;2023-06-14T08:39:10;101466.06;;;21.92;52.77
31285;BME280;56605;51.516;6.742;2023-06-14T08:41:36;101461.59;;;21.98;52.87
31285;BME280;56605;51.516;6.742;2023-06-14T08:44:02;101465.22;;;21.29;52.20
31285;BME280;56605;51.516;6.742;2023-06-14T08:46:30;101461.63;;;21.54;51.51
31285;BME280;56605;51.516;6.742;2023-06-14T08:48:59;101468.44;;;22.38;51.55
31285;BME280;56605;51.516;6.742;2023-06-14T08:51:27;101468.63;;;21.62;51.30
31285;BME280;56605;51.516;6.742;2023-06-14T08:53:59;101467.69;;;22.31;49.97
31285;BME280;56605;51.516;6.742;2023-06-14T08:56:30;101465.44;;;21.72;51.38
31285;BME280;56605;51.516;6.742;2023-06-14T08:58:57;101451.94;;;22.02;50.95
31285;BME280;56605;51.516;6.742;2023-06-14T09:01:28;101472.59;;;23.02;50.12
31285;BME280;56605;51.516;6.742;2023-06-14T09:03:54;101472.53;;;23.45;48.55
31285;BME280;56605;51.516;6.742;2023-06-14T09:06:22;101469.44;;;21.69;50.47
31285;BME280;56605;51.516;6.742;2023-06-14T09:08:50;101462.38;;;21.87;49.91
31285;BME280;56605;51.516;6.742;2023-06-14T09:11:17;101468.59;;;23.29;48.46
31285;BME280;56605;51.516;6.742;2023-06-14T09:13:44;101467.53;;;22.75;50.43
31285;BME280;56605;51.516;6.742;2023-06-14T09:16:10;101471.16;;;23.24;48.51
31285;BME280;56605;51.516;6.742;2023-06-14T09:18:39;101469.44;;;22.25;49.24
31285;BME280;56605;51.516;6.742;2023-06-14T09:21:06;101482.88;;;21.83;49.63
31285;BME280;56605;51.516;6.742;2023-06-14T09:23:40;101466.59;;;22.51;48.73
31285;BME280;56605;51.516;6.742;2023-06-14T09:26:10;101475.78;;;22.99;48.33
31285;BME280;56605;51.516;6.742;2023-06-14T09:28:44;101483.59;;;24.03;46.34
31285;BME280;56605;51.516;6.742;2023-06-14T09:31:11;101473.69;;;24.38;45.44
31285;BME280;56605;51.516;6.742;2023-06-14T09:33:36;101479.72;;;23.51;45.71
31285;BME280;56605;51.516;6.742;2023-06-14T09:36:03;101481.50;;;22.79;47.44
31285;BME280;56605;51.516;6.742;2023-06-14T09:38:28;101482.81;;;23.67;47.03
31285;BME280;56605;51.516;6.742;2023-06-14T09:40:58;101475.19;;;23.09;48.36
31285;BME280;56605;51.516;6.742;2023-06-14T09:43:23;101475.94;;;23.88;45.88
31285;BME280;56605;51.516;6.742;2023-06-14T09:45:51;101478.94;;;22.35;48.45
31285;BME280;56605;51.516;6.742;2023-06-14T09:48:17;101477.56;;;24.01;45.38
31285;BME280;56605;51.516;6.742;2023-06-14T09:50:44;101471.84;;;22.95;46.12
31285;BME280;56605;51.516;6.742;2023-06-14T09:53:11;101485.25;;;22.66;46.65
31285;BME280;56605;51.516;6.742;2023-06-14T09:55:37;101482.78;;;22.46;45.42
31285;BME280;56605;51.516;6.742;2023-06-14T09:58:07;101471.44;;;21.74;47.14
31285;BME280;56605;51.516;6.742;2023-06-14T10:00:33;101487.38;;;21.96;46.97
31285;BME280;56605;51.516;6.742;2023-06-14T10:03:20;101485.34;;;22.59;46.72
31285;BME280;56605;51.516;6.742;2023-06-14T10:05:48;101495.75;;;23.60;44.83
31285;BME280;56605;51.516;6.742;2023-06-14T10:08:17;101482.91;;;23.72;44.74
31285;BME280;56605;51.516;6.742;2023-06-14T10:10:43;101496.59;;;22.63;43.40
31285;BME280;56605;51.516;6.742;2023-06-14T10:13:10;101490.56;;;22.61;43.96
31285;BME280;56605;51.516;6.742;2023-06-14T10:21:22;101482.44;;;22.73;44.07
31285;BME280;56605;51.516;6.742;2023-06-14T10:23:53;101482.72;;;22.34;45.02
31285;BME280;56605;51.516;6.742;2023-06-14T10:26:22;101497.06;;;25.61;40.02
31285;BME280;56605;51.516;6.742;2023-06-14T10:28:59;101495.69;;;23.36;43.64
31285;BME280;56605;51.516;6.742;2023-06-14T10:31:49;101483.44;;;22.60;43.71
31285;BME280;56605;51.516;6.742;2023-06-14T10:34:23;101484.28;;;23.03;43.52
31285;BME280;56605;51.516;6.742;2023-06-14T10:37:06;101473.66;;;23.13;42.48
31285;BME280;56605;51.516;6.742;2023-06-14T10:39:38;101468.91;;;24.16;41.84
31285;BME280;56605;51.516;6.742;2023-06-14T10:42:05;101478.56;;;23.47;41.57
31285;BME280;56605;51.516;6.742;2023-06-14T10:44:42;101469.22;;;22.88;42.60
31285;BME280;56605;51.516;6.742;2023-06-14T10:47:09;101488.75;;;23.52;42.26
31285;BME280;56605;51.516;6.742;2023-06-14T10:49:43;101479.75;;;24.87;40.31
31285;BME280;56605;51.516;6.742;2023-06-14T10:52:14;101475.72;;;25.24;39.77
31285;BME280;56605;51.516;6.742;2023-06-14T10:57:38;101478.97;;;24.16;40.87
31285;BME280;56605;51.516;6.742;2023-06-14T11:00:05;101466.63;;;25.18;39.13
31285;BME280;56605;51.516;6.742;2023-06-14T11:11:00;101482.53;;;24.04;41.34
31285;BME280;56605;51.516;6.742;2023-06-14T11:13:26;101472.06;;;23.36;42.04
31285;BME280;56605;51.516;6.742;2023-06-14T11:15:52;101469.53;;;23.71;41.61
31285;BME280;56605;51.516;6.742;2023-06-14T11:18:22;101467.28;;;23.79;40.65
31285;BME280;56605;51.516;6.742;2023-06-14T11:20:53;101465.38;;;25.08;40.88
31285;BME280;56605;51.516;6.742;2023-06-14T11:23:18;101471.84;;;24.27;40.41
31285;BME280;56605;51.516;6.742;2023-06-14T11:25:49;101473.16;;;23.04;41.88
31285;BME280;56605;51.516;6.742;2023-06-14T11:28:15;101469.09;;;25.19;40.58
31285;BME280;56605;51.516;6.742;2023-06-14T11:30:40;101471.16;;;24.08;42.82
31285;BME280;56605;51.516;6.742;2023-06-14T11:33:09;101468.69;;;25.85;39.79
31285;BME280;56605;51.516;6.742;2023-06-14T11:35:36;101472.25;;;25.11;39.90
31285;BME280;56605;51.516;6.742;2023-06-14T11:38:01;101465.88;;;25.23;38.61
31285;BME280;56605;51.516;6.742;2023-06-14T11:40:27;101474.50;;;23.74;42.29
31285;BME280;56605;51.516;6.742;2023-06-14T11:42:59;101474.41;;;23.80;41.25
31285;BME280;56605;51.516;6.742;2023-06-14T11:45:26;101458.56;;;26.30;38.43
31285;BME280;56605;51.516;6.742;2023-06-14T11:47:53;101471.66;;;25.09;40.41
31285;BME280;56605;51.516;6.742;2023-06-14T11:50:19;101461.69;;;25.94;39.19
31285;BME280;56605;51.516;6.742;2023-06-14T11:52:44;101472.19;;;26.02;38.01
31285;BME280;56605;51.516;6.742;2023-06-14T11:55:10;101465.06;;;26.79;37.57
31285;BME280;56605;51.516;6.742;2023-06-14T11:57:36;101470.06;;;26.87;35.90
31285;BME280;56605;51.516;6.742;2023-06-14T12:00:06;101474.28;;;26.17;36.53
31285;BME280;56605;51.516;6.742;2023-06-14T12:02:33;101474.78;;;25.52;37.82
31285;BME280;56605;51.516;6.742;2023-06-14T12:05:04;101473.88;;;25.29;38.93
31285;BME280;56605;51.516;6.742;2023-06-14T12:07:30;101469.00;;;26.33;37.68
31285;BME280;56605;51.516;6.742;2023-06-14T12:12:22;101458.69;;;25.73;39.26
31285;BME280;56605;51.516;6.742;2023-06-14T12:14:47;101456.09;;;24.92;40.47
31285;BME280;56605;51.516;6.742;2023-06-14T12:17:13;101454.88;;;25.96;39.89
31285;BME280;56605;51.516;6.742;2023-06-14T12:19:42;101456.47;;;25.92;38.56
31285;BME280;56605;51.516;6.742;2023-06-14T12:22:11;101464.63;;;24.67;39.07
31285;BME280;56605;51.516;6.742;2023-06-14T12:24:36;101459.47;;;26.13;37.95
31285;BME280;56605;51.516;6.742;2023-06-14T12:27:03;101457.16;;;25.60;38.52
31285;BME280;56605;51.516;6.742;2023-06-14T12:29:29;101459.22;;;25.36;38.79
31285;BME280;56605;51.516;6.742;2023-06-14T12:31:55;101450.03;;;26.26;36.98
31285;BME280;56605;51.516;6.742;2023-06-14T12:34:23;101453.66;;;27.25;36.29
31285;BME280;56605;51.516;6.742;2023-06-14T12:36:50;101463.22;;;26.07;38.38
31285;BME280;56605;51.516;6.742;2023-06-14T12:39:15;101465.22;;;25.15;39.31
31285;BME280;56605;51.516;6.742;2023-06-14T12:41:40;101462.56;;;25.38;39.12
31285;BME280;56605;51.516;6.742;2023-06-14T12:44:07;101458.28;;;25.47;38.07
31285;BME280;56605;51.516;6.742;2023-06-14T12:46:33;101464.25;;;26.28;37.18
31285;BME280;56605;51.516;6.742;2023-06-14T12:48:58;101466.03;;;24.99;39.25
31285;BME280;56605;51.516;6.742;2023-06-14T12:51:23;101466.81;;;26.13;39.31
31285;BME280;56605;51.516;6.742;2023-06-14T12:53:50;101463.47;;;26.55;36.73
31285;BME280;56605;51.516;6.742;2023-06-14T12:56:16;101467.03;;;27.16;35.98
31285;BME280;56605;51.516;6.742;2023-06-14T12:58:42;101470.59;;;26.29;37.57
31285;BME280;56605;51.516;6.742;2023-06-14T13:01:07;101470.22;;;27.41;36.72
31285;BME280;56605;51.516;6.742;2023-06-14T13:03:33;101466.72;;;28.04;35.09
31285;BME280;56605;51.516;6.742;2023-06-14T13:06:01;101481.09;;;27.68;34.73
31285;BME280;56605;51.516;6.742;2023-06-14T13:08:28;101464.97;;;25.74;37.00
31285;BME280;56605;51.516;6.742;2023-06-14T13:10:53;101472.25;;;26.30;37.00
31285;BME280;56605;51.516;6.742;2023-06-14T13:13:19;101466.19;;;27.54;35.37